Time;durP1;ratioP1;P1;durP2;ratioP2;P2;SDS_P1;SDS_P2;PMS_P1;PMS_P2;Temp;Humidity;BMP_temperature;BMP_pressure;BME280_temperature;BME280_humidity;BME280_pressure;Samples;Min_cycle;Max_cycle;Signal;HPM_P1;HPM_P2
2022/07/20 00:02:21;;;;;;;13.48;8.27;;;24.60;65.70;;;;;;5042163;28;20045;-93
2022/07/20 00:04:50;;;;;;;15.80;7.30;;;24.60;65.90;;;;;;5039324;28;20029;-95
2022/07/20 00:07:17;;;;;;;11.88;6.70;;;24.50;65.70;;;;;;5021104;28;20061;-93
2022/07/20 00:12:28;;;;;;;14.82;7.40;;;24.60;65.10;;;;;;5036505;28;20052;-93
2022/07/20 00:14:54;;;;;;;10.93;7.20;;;24.60;65.10;;;;;;5037227;28;20032;-94
2022/07/20 00:17:19;;;;;;;13.32;6.85;;;24.50;65.20;;;;;;5029605;28;20018;-92
2022/07/20 00:19:45;;;;;;;11.75;6.80;;;24.50;65.40;;;;;;5021107;28;20022;-95
2022/07/20 00:22:11;;;;;;;10.60;6.38;;;24.40;65.30;;;;;;5015688;28;20025;-92
2022/07/20 00:24:37;;;;;;;13.40;7.40;;;24.50;65.10;;;;;;5016152;28;20509;-95
2022/07/20 00:27:03;;;;;;;12.30;6.70;;;24.40;65.00;;;;;;5016014;28;20028;-94
2022/07/20 00:29:28;;;;;;;14.77;7.95;;;24.40;65.30;;;;;;5016567;28;20399;-96
2022/07/20 00:31:54;;;;;;;11.45;7.20;;;24.30;65.60;;;;;;5021019;28;20083;-92
2022/07/20 00:34:20;;;;;;;9.25;6.82;;;24.20;65.80;;;;;;5028464;28;20021;-89
2022/07/20 00:36:46;;;;;;;12.75;6.53;;;24.10;66.10;;;;;;5036294;28;20041;-91
2022/07/20 00:39:11;;;;;;;13.30;7.28;;;24.10;66.50;;;;;;5024537;28;20032;-92
2022/07/20 00:41:37;;;;;;;11.85;6.95;;;24.10;66.80;;;;;;5017323;28;20033;-94
2022/07/20 00:44:05;;;;;;;10.10;6.60;;;24.00;66.80;;;;;;5016691;28;20160;-92
2022/07/20 00:46:34;;;;;;;9.25;6.43;;;24.00;67.00;;;;;;5017236;28;20372;-93
2022/07/20 00:49:01;;;;;;;9.45;6.45;;;23.90;66.90;;;;;;5016359;28;20030;-92
2022/07/20 00:51:27;;;;;;;13.20;6.68;;;23.90;66.90;;;;;;5018769;28;20018;-92
2022/07/20 00:53:54;;;;;;;10.85;6.85;;;23.80;67.10;;;;;;5020125;28;20057;-93
2022/07/20 00:56:20;;;;;;;11.93;6.75;;;23.80;67.40;;;;;;5023723;28;20096;-92
2022/07/20 00:58:46;;;;;;;14.70;7.22;;;23.70;67.60;;;;;;5022339;28;20034;-93
2022/07/20 01:01:13;;;;;;;13.27;7.18;;;23.70;67.80;;;;;;5019776;28;20425;-93
2022/07/20 01:03:39;;;;;;;9.35;6.85;;;23.60;68.10;;;;;;5015827;28;20042;-92
2022/07/20 01:06:06;;;;;;;11.82;6.75;;;23.60;68.30;;;;;;5015979;28;20057;-93
2022/07/20 01:08:32;;;;;;;11.48;7.07;;;23.50;68.50;;;;;;5013644;28;20054;-93
2022/07/20 01:10:58;;;;;;;18.10;7.10;;;23.50;68.80;;;;;;5000718;28;20026;-94
2022/07/20 01:13:24;;;;;;;15.65;7.38;;;23.40;69.10;;;;;;5018826;28;20390;-92
2022/07/20 01:15:50;;;;;;;13.30;8.52;;;23.30;69.40;;;;;;5015639;28;20093;-93
2022/07/20 01:18:16;;;;;;;12.90;7.72;;;23.30;69.60;;;;;;4998193;28;20029;-94
2022/07/20 01:20:46;;;;;;;17.58;8.20;;;23.20;69.80;;;;;;5014939;28;20032;-93
2022/07/20 01:23:12;;;;;;;17.88;8.13;;;23.20;70.10;;;;;;5014301;28;20040;-94
2022/07/20 01:25:38;;;;;;;12.18;7.93;;;23.20;70.30;;;;;;5014909;28;20022;-93
2022/07/20 01:28:08;;;;;;;11.68;7.72;;;23.10;70.60;;;;;;4998397;28;20544;-94
2022/07/20 01:30:34;;;;;;;14.80;8.38;;;23.00;70.80;;;;;;5029627;28;20093;-91
2022/07/20 01:33:01;;;;;;;12.95;8.85;;;23.00;70.90;;;;;;5020921;28;20064;-91
2022/07/20 01:35:27;;;;;;;13.95;9.02;;;23.00;71.10;;;;;;5017206;28;20076;-94
2022/07/20 01:37:53;;;;;;;14.35;7.82;;;22.90;71.10;;;;;;5010055;28;20030;-94
2022/07/20 01:40:19;;;;;;;15.40;7.80;;;22.90;71.20;;;;;;5010986;28;20072;-93
2022/07/20 01:42:44;;;;;;;15.30;8.82;;;22.90;71.40;;;;;;5007944;28;20068;-93
2022/07/20 01:45:10;;;;;;;14.23;8.05;;;22.80;71.60;;;;;;5018533;28;20081;-92
2022/07/20 01:47:36;;;;;;;11.55;8.27;;;22.80;71.90;;;;;;5014394;28;20130;-92
2022/07/20 01:50:02;;;;;;;17.83;8.80;;;22.80;72.00;;;;;;5010348;28;20029;-94
2022/07/20 01:52:28;;;;;;;14.32;9.25;;;22.70;72.10;;;;;;5019088;28;20026;-94
2022/07/20 01:54:54;;;;;;;17.27;9.55;;;22.70;72.10;;;;;;5001289;28;20037;-93
2022/07/20 01:57:19;;;;;;;16.17;9.02;;;22.60;72.20;;;;;;5001176;28;20470;-93
2022/07/20 01:59:45;;;;;;;20.80;9.07;;;22.60;72.40;;;;;;5000444;28;20420;-94
2022/07/20 02:02:11;;;;;;;14.48;8.15;;;22.60;72.50;;;;;;5000584;28;20029;-93
2022/07/20 02:04:37;;;;;;;13.75;8.70;;;22.50;72.70;;;;;;5000023;28;20552;-94
2022/07/20 02:07:03;;;;;;;14.98;8.35;;;22.50;72.90;;;;;;4999957;28;20030;-94
2022/07/20 02:09:28;;;;;;;13.75;8.02;;;22.50;73.00;;;;;;5009945;28;20184;-94
2022/07/20 02:11:54;;;;;;;16.33;8.63;;;22.50;73.20;;;;;;5015403;28;20049;-95
2022/07/20 02:14:20;;;;;;;16.38;8.98;;;22.40;73.30;;;;;;5015281;28;20030;-94
2022/07/20 02:16:46;;;;;;;16.30;8.85;;;22.40;73.60;;;;;;5018614;28;20037;-94
2022/07/20 02:19:12;;;;;;;14.77;8.95;;;22.30;73.90;;;;;;5019715;28;20391;-96
2022/07/20 02:21:38;;;;;;;14.18;9.18;;;22.30;74.10;;;;;;5019211;28;20029;-95
2022/07/20 02:24:04;;;;;;;16.80;8.57;;;22.20;74.20;;;;;;5019198;28;20041;-95
2022/07/20 02:26:30;;;;;;;16.48;8.85;;;22.20;74.30;;;;;;5019275;28;20545;-95
2022/07/20 02:28:56;;;;;;;14.77;9.68;;;22.20;74.30;;;;;;5019034;28;20026;-94
2022/07/20 02:31:23;;;;;;;13.98;7.82;;;22.10;74.40;;;;;;5019536;28;20049;-93
2022/07/20 02:33:50;;;;;;;14.82;8.88;;;22.10;74.50;;;;;;5023356;28;20093;-91
2022/07/20 02:36:16;;;;;;;13.82;8.63;;;22.10;74.60;;;;;;5028535;28;20026;-94
2022/07/20 02:38:42;;;;;;;17.25;9.13;;;22.10;74.80;;;;;;5022559;28;20022;-94
2022/07/20 02:41:09;;;;;;;12.43;8.77;;;22.10;74.90;;;;;;5019524;28;20088;-93
2022/07/20 02:43:34;;;;;;;12.02;8.05;;;22.10;75.10;;;;;;5018392;28;20042;-94
2022/07/20 02:46:00;;;;;;;14.35;8.80;;;22.10;75.10;;;;;;5018449;28;20554;-94
2022/07/20 02:48:26;;;;;;;16.27;9.63;;;22.10;75.30;;;;;;5018474;28;20065;-95
2022/07/20 02:50:52;;;;;;;14.05;9.13;;;22.00;75.40;;;;;;5018149;28;20048;-94
2022/07/20 02:53:18;;;;;;;16.73;8.95;;;21.90;75.60;;;;;;5018078;28;20053;-95
2022/07/20 02:55:44;;;;;;;18.52;9.93;;;21.80;75.90;;;;;;5018626;28;20036;-94
2022/07/20 02:58:11;;;;;;;13.75;8.88;;;21.70;76.40;;;;;;5018680;28;20049;-95
2022/07/20 03:00:37;;;;;;;19.08;10.32;;;21.70;76.80;;;;;;5018699;28;20033;-94
2022/07/20 03:03:04;;;;;;;18.65;10.43;;;21.60;77.20;;;;;;5019301;28;20046;-92
2022/07/20 03:05:30;;;;;;;16.65;10.02;;;21.50;77.50;;;;;;5018740;28;20033;-95
2022/07/20 03:07:56;;;;;;;19.38;10.18;;;21.40;77.90;;;;;;5027920;28;20089;-92
2022/07/20 03:10:22;;;;;;;20.92;11.13;;;21.30;78.30;;;;;;5059227;28;20021;-90
2022/07/20 03:12:47;;;;;;;17.38;10.38;;;21.30;78.80;;;;;;5059350;28;20043;-89
2022/07/20 03:15:14;;;;;;;21.70;10.55;;;21.30;79.40;;;;;;5059875;28;20021;-88
2022/07/20 03:17:48;;;;;;;19.35;11.50;;;21.20;79.80;;;;;;5059590;28;20028;-91
2022/07/20 03:20:19;;;;;;;19.70;11.27;;;21.20;80.40;;;;;;5059708;28;20030;-88
2022/07/20 03:22:45;;;;;;;18.77;11.32;;;21.20;80.90;;;;;;5056565;28;20041;-95
2022/07/20 03:25:11;;;;;;;21.33;10.85;;;21.10;81.30;;;;;;5042198;28;20044;-93
2022/07/20 03:27:37;;;;;;;21.65;12.70;;;21.10;81.80;;;;;;5039611;28;20060;-95
2022/07/20 03:30:05;;;;;;;25.70;12.07;;;21.10;82.20;;;;;;5038926;28;20108;-94
2022/07/20 03:32:31;;;;;;;18.67;11.50;;;21.10;82.90;;;;;;5038697;28;20021;-93
2022/07/20 03:34:57;;;;;;;23.08;12.73;;;21.10;83.40;;;;;;5037586;28;20064;-94
2022/07/20 03:37:22;;;;;;;27.85;14.55;;;21.10;83.80;;;;;;5037801;28;20065;-95
2022/07/20 03:39:48;;;;;;;25.63;14.18;;;21.00;84.30;;;;;;5037759;28;20102;-94
2022/07/20 03:42:14;;;;;;;31.25;17.15;;;21.00;85.10;;;;;;5037790;28;20148;-95
2022/07/20 03:44:39;;;;;;;32.88;17.00;;;20.90;85.90;;;;;;5037925;28;20033;-95
2022/07/20 03:47:05;;;;;;;36.25;18.42;;;20.90;86.70;;;;;;5037645;28;20080;-93
2022/07/20 03:49:32;;;;;;;34.15;19.77;;;20.80;87.40;;;;;;5037890;28;20383;-93
2022/07/20 03:51:58;;;;;;;41.33;19.63;;;20.80;87.90;;;;;;5038029;28;20040;-95
2022/07/20 03:54:24;;;;;;;47.25;22.95;;;20.80;88.50;;;;;;5037300;28;20072;-95
2022/07/20 03:56:49;;;;;;;41.53;21.95;;;20.80;88.90;;;;;;5037103;28;20048;-95
2022/07/20 03:59:15;;;;;;;49.25;25.13;;;20.80;89.30;;;;;;5036838;28;20072;-92
2022/07/20 04:01:42;;;;;;;45.42;24.00;;;20.70;89.60;;;;;;5036809;28;20475;-95
2022/07/20 04:04:08;;;;;;;53.33;26.60;;;20.70;89.80;;;;;;5036510;28;20475;-94
2022/07/20 04:06:35;;;;;;;52.25;24.77;;;20.70;90.00;;;;;;5036883;28;20029;-95
2022/07/20 04:09:01;;;;;;;50.00;26.52;;;20.70;90.10;;;;;;5036479;28;20049;-94
2022/07/20 04:11:27;;;;;;;46.55;23.42;;;20.70;90.20;;;;;;5036910;28;20026;-95
2022/07/20 04:13:53;;;;;;;47.47;23.90;;;20.70;90.30;;;;;;5020213;28;20033;-96
2022/07/20 04:16:19;;;;;;;52.70;25.33;;;20.70;90.50;;;;;;5036801;28;20481;-95
2022/07/20 04:18:46;;;;;;;36.13;20.38;;;20.70;90.70;;;;;;5036486;28;20030;-95
2022/07/20 04:21:11;;;;;;;25.10;15.90;;;20.60;90.90;;;;;;5035902;28;20053;-95
2022/07/20 04:23:37;;;;;;;38.50;19.67;;;20.60;91.10;;;;;;5035746;28;20096;-94
2022/07/20 04:26:03;;;;;;;23.85;12.35;;;20.60;91.30;;;;;;5036365;28;20022;-93
2022/07/20 04:28:29;;;;;;;24.85;13.13;;;20.50;91.50;;;;;;5037170;28;20071;-93
2022/07/20 04:30:55;;;;;;;19.48;10.70;;;20.50;91.70;;;;;;5040810;28;20069;-91
2022/07/20 04:33:20;;;;;;;23.23;11.68;;;20.50;92.00;;;;;;5057390;28;20053;-92
2022/07/20 04:35:47;;;;;;;20.70;10.80;;;20.50;92.20;;;;;;5038426;28;20383;-95
2022/07/20 04:38:14;;;;;;;19.02;10.07;;;20.40;92.50;;;;;;5037330;28;20100;-94
2022/07/20 04:40:41;;;;;;;19.05;10.68;;;20.40;92.70;;;;;;5036032;28;20030;-94
2022/07/20 04:43:06;;;;;;;23.17;11.27;;;20.40;93.00;;;;;;5035726;28;20040;-94
2022/07/20 04:45:32;;;;;;;17.92;9.63;;;20.40;93.40;;;;;;5036534;28;20021;-96
2022/07/20 04:47:58;;;;;;;18.15;11.00;;;20.30;93.80;;;;;;5039916;28;20029;-93
2022/07/20 04:50:24;;;;;;;18.35;10.13;;;20.30;94.10;;;;;;5053308;28;20077;-95
2022/07/20 04:52:51;;;;;;;17.27;10.57;;;20.30;94.60;;;;;;5037107;28;20022;-93
2022/07/20 04:55:17;;;;;;;14.10;9.77;;;20.20;95.10;;;;;;5038755;28;20037;-94
2022/07/20 04:57:43;;;;;;;20.13;11.23;;;20.20;95.60;;;;;;5039787;28;20029;-96
2022/07/20 05:00:09;;;;;;;19.60;11.20;;;20.20;96.10;;;;;;5036215;28;20045;-94
2022/07/20 05:02:35;;;;;;;16.67;9.52;;;20.10;96.50;;;;;;5037642;28;20034;-95
2022/07/20 05:05:01;;;;;;;17.65;9.77;;;20.10;97.10;;;;;;5035230;28;20059;-94
2022/07/20 05:07:26;;;;;;;16.08;9.73;;;20.10;97.70;;;;;;5019068;28;20076;-94
2022/07/20 05:09:52;;;;;;;17.60;9.60;;;20.00;98.40;;;;;;5035174;28;20050;-96
2022/07/20 05:12:18;;;;;;;15.23;8.68;;;20.00;99.20;;;;;;5034836;28;20124;-94
2022/07/20 05:14:43;;;;;;;21.02;11.30;;;19.90;99.90;;;;;;5019148;28;20052;-94
2022/07/20 05:17:09;;;;;;;23.48;9.85;;;19.90;99.90;;;;;;5036746;28;20093;-94
2022/07/20 05:19:35;;;;;;;18.85;9.20;;;19.80;99.90;;;;;;5036465;28;20029;-94
2022/07/20 05:22:01;;;;;;;22.30;10.35;;;19.70;99.90;;;;;;5040346;28;20021;-92
2022/07/20 05:24:27;;;;;;;23.90;10.65;;;19.70;99.90;;;;;;5056017;28;20061;-90
2022/07/20 05:26:52;;;;;;;25.52;10.98;;;19.60;99.90;;;;;;5056018;28;20029;-91
2022/07/20 05:29:18;;;;;;;28.85;11.55;;;19.60;99.90;;;;;;5049112;28;20041;-94
2022/07/20 05:31:44;;;;;;;19.55;9.10;;;19.60;99.90;;;;;;5045636;28;20029;-93
2022/07/20 05:34:09;;;;;;;19.38;9.20;;;19.50;99.90;;;;;;5044556;28;20093;-94
2022/07/20 05:36:35;;;;;;;21.30;10.40;;;19.50;99.90;;;;;;5041168;28;20084;-95
2022/07/20 05:39:01;;;;;;;25.73;9.80;;;19.50;99.90;;;;;;5041839;28;20052;-94
2022/07/20 05:41:27;;;;;;;27.98;11.98;;;19.40;99.90;;;;;;5039951;28;20056;-93
2022/07/20 05:43:53;;;;;;;36.47;15.70;;;19.40;99.90;;;;;;5037029;28;20216;-94
2022/07/20 05:46:18;;;;;;;35.88;15.93;;;19.40;99.90;;;;;;5039435;28;20029;-94
2022/07/20 05:48:44;;;;;;;41.75;16.25;;;19.40;99.90;;;;;;5047809;28;20040;-93
2022/07/20 05:51:10;;;;;;;30.77;15.52;;;19.50;99.90;;;;;;5056057;28;20025;-91
2022/07/20 05:53:35;;;;;;;34.20;14.45;;;19.50;99.90;;;;;;5053953;28;20048;-94
2022/07/20 05:56:01;;;;;;;25.38;11.27;;;19.50;99.90;;;;;;5043225;28;20032;-96
2022/07/20 05:58:27;;;;;;;24.45;10.90;;;19.50;99.90;;;;;;5041208;28;20036;-95
2022/07/20 06:00:53;;;;;;;21.92;10.35;;;19.50;99.90;;;;;;5036847;28;20079;-94
2022/07/20 06:03:19;;;;;;;15.05;8.18;;;19.50;99.90;;;;;;5020509;28;20067;-95
2022/07/20 06:05:45;;;;;;;29.30;13.13;;;19.50;99.90;;;;;;5036800;28;20021;-96
2022/07/20 06:08:10;;;;;;;41.35;16.98;;;19.50;99.90;;;;;;5035388;28;20048;-95
2022/07/20 06:10:36;;;;;;;34.17;17.23;;;19.60;99.90;;;;;;5037076;28;20040;-95
2022/07/20 06:13:04;;;;;;;35.95;17.02;;;19.60;99.90;;;;;;5035958;28;20053;-93
2022/07/20 06:15:30;;;;;;;33.55;13.15;;;19.60;99.90;;;;;;5035640;28;20029;-93
2022/07/20 06:17:56;;;;;;;20.02;10.95;;;19.70;99.90;;;;;;5037915;28;20021;-93
2022/07/20 06:20:23;;;;;;;30.10;14.52;;;19.80;99.90;;;;;;5043622;28;20032;-91
2022/07/20 06:22:51;;;;;;;37.30;17.83;;;19.80;99.90;;;;;;5053686;28;20038;-91
2022/07/20 06:25:17;;;;;;;43.15;17.60;;;19.80;99.90;;;;;;5050313;28;20033;-94
2022/07/20 06:27:43;;;;;;;32.33;16.02;;;19.90;99.90;;;;;;5039266;28;20358;-95
2022/07/20 06:30:11;;;;;;;30.50;15.88;;;19.90;99.90;;;;;;5047947;28;20028;-94
2022/07/20 06:32:38;;;;;;;20.88;10.77;;;20.00;99.90;;;;;;5054867;28;20046;-94
2022/07/20 06:35:04;;;;;;;25.70;8.73;;;20.00;99.90;;;;;;5047913;28;20041;-91
2022/07/20 06:37:30;;;;;;;21.75;10.57;;;20.10;99.90;;;;;;5044458;28;20029;-94
2022/07/20 06:39:56;;;;;;;16.05;8.07;;;20.10;99.90;;;;;;5036845;28;20076;-95
2022/07/20 06:42:22;;;;;;;18.52;7.47;;;20.20;99.90;;;;;;5035908;28;20469;-96
2022/07/20 06:44:48;;;;;;;25.27;11.73;;;20.30;99.90;;;;;;5035214;28;20032;-95
2022/07/20 06:47:15;;;;;;;17.23;8.68;;;20.40;99.90;;;;;;5034916;28;20052;-96
2022/07/20 06:49:41;;;;;;;18.60;8.23;;;20.40;99.90;;;;;;5036962;28;20030;-94
2022/07/20 06:52:07;;;;;;;20.38;8.60;;;20.50;99.90;;;;;;5035904;28;20033;-95
2022/07/20 06:54:32;;;;;;;16.80;7.97;;;20.50;99.90;;;;;;5035257;28;20047;-95
2022/07/20 06:56:58;;;;;;;22.02;7.88;;;20.50;99.90;;;;;;5036215;28;20033;-95
2022/07/20 06:59:24;;;;;;;15.02;6.05;;;20.50;99.90;;;;;;5036819;28;20021;-95
2022/07/20 07:01:50;;;;;;;18.08;8.25;;;20.50;99.90;;;;;;5038800;28;20364;-96
2022/07/20 07:04:16;;;;;;;22.10;11.65;;;20.50;99.90;;;;;;5048335;28;20053;-96
2022/07/20 07:06:42;;;;;;;18.60;8.57;;;20.60;99.90;;;;;;5052861;28;20036;-94
2022/07/20 07:09:09;;;;;;;16.98;8.30;;;20.70;99.90;;;;;;5039629;28;20053;-93
2022/07/20 07:11:35;;;;;;;20.27;8.98;;;20.70;99.90;;;;;;5055646;28;20033;-90
2022/07/20 07:14:02;;;;;;;17.58;8.27;;;20.80;99.90;;;;;;5056173;28;20037;-92
2022/07/20 07:16:27;;;;;;;18.50;8.68;;;20.80;99.90;;;;;;5043454;28;20022;-93
2022/07/20 07:18:53;;;;;;;20.05;6.70;;;20.90;99.90;;;;;;5041239;28;20109;-93
2022/07/20 07:21:19;;;;;;;13.07;5.75;;;20.90;99.90;;;;;;5041475;28;20084;-94
2022/07/20 07:23:49;;;;;;;12.73;5.15;;;20.90;99.90;;;;;;5041305;28;20041;-95
2022/07/20 07:26:20;;;;;;;17.80;5.13;;;21.00;99.90;;;;;;5038690;28;20022;-96
2022/07/20 07:28:46;;;;;;;15.02;4.50;;;20.90;99.90;;;;;;5039341;28;20124;-96
2022/07/20 07:31:13;;;;;;;11.07;4.68;;;20.90;99.90;;;;;;5042388;28;20421;-96
2022/07/20 07:33:38;;;;;;;12.60;5.03;;;21.00;99.90;;;;;;5040465;28;20033;-96
2022/07/20 07:36:06;;;;;;;11.07;4.55;;;21.00;99.90;;;;;;5040124;28;20180;-96
2022/07/20 07:38:32;;;;;;;13.43;5.20;;;21.10;99.90;;;;;;5040751;28;20060;-96
2022/07/20 07:41:00;;;;;;;13.32;5.50;;;21.10;99.90;;;;;;5040287;28;20083;-93
2022/07/20 07:43:25;;;;;;;16.60;5.85;;;21.20;99.90;;;;;;5039621;28;20033;-94
2022/07/20 07:45:51;;;;;;;12.73;4.85;;;21.20;99.90;;;;;;5040327;28;20017;-94
2022/07/20 07:48:17;;;;;;;12.10;5.13;;;21.20;99.90;;;;;;5039596;28;20087;-93
2022/07/20 07:50:44;;;;;;;15.20;5.55;;;21.40;99.90;;;;;;5038861;28;20037;-94
2022/07/20 07:53:10;;;;;;;13.40;5.68;;;21.50;99.90;;;;;;5038593;28;20021;-95
2022/07/20 07:55:38;;;;;;;16.13;5.68;;;21.60;99.90;;;;;;5039492;28;20022;-95
2022/07/20 07:58:05;;;;;;;12.85;5.68;;;21.70;99.90;;;;;;5046981;28;20114;-93
2022/07/20 08:00:30;;;;;;;13.90;5.35;;;21.90;99.90;;;;;;5046529;28;20112;-96
2022/07/20 08:02:57;;;;;;;18.92;7.32;;;22.00;99.90;;;;;;5038762;28;20061;-96
2022/07/20 08:05:23;;;;;;;17.85;7.97;;;22.10;99.90;;;;;;5022957;28;20367;-94
2022/07/20 08:07:49;;;;;;;23.50;10.18;;;22.20;99.90;;;;;;5038693;28;20029;-93
2022/07/20 08:10:16;;;;;;;17.13;8.18;;;22.30;99.90;;;;;;5037864;28;20034;-95
2022/07/20 08:12:45;;;;;;;26.20;10.18;;;22.40;99.90;;;;;;5038532;28;20467;-94
2022/07/20 08:15:12;;;;;;;24.45;11.05;;;22.40;99.90;;;;;;5038390;28;20041;-94
2022/07/20 08:17:39;;;;;;;23.70;9.50;;;22.50;99.50;;;;;;5039741;28;20038;-95
2022/07/20 08:20:06;;;;;;;20.67;10.32;;;22.50;99.10;;;;;;5044194;28;20029;-93
2022/07/20 08:22:33;;;;;;;30.70;12.70;;;22.60;98.80;;;;;;5044797;28;20034;-93
2022/07/20 08:24:59;;;;;;;23.17;10.48;;;22.60;98.40;;;;;;5042227;28;20022;-94
2022/07/20 08:27:25;;;;;;;29.33;11.32;;;22.80;98.10;;;;;;5044441;28;20025;-94
2022/07/20 08:29:57;;;;;;;25.85;11.38;;;22.90;97.80;;;;;;5041405;28;20036;-95
2022/07/20 08:32:26;;;;;;;23.88;9.13;;;22.90;97.10;;;;;;5038408;28;20029;-94
2022/07/20 08:34:52;;;;;;;15.88;7.25;;;23.00;96.90;;;;;;5038545;28;20021;-95
2022/07/20 08:37:18;;;;;;;17.25;5.82;;;23.00;96.50;;;;;;5043411;28;20029;-96
2022/07/20 08:39:43;;;;;;;10.55;4.30;;;23.00;96.20;;;;;;5050135;28;20026;-92
2022/07/20 08:42:10;;;;;;;14.07;4.55;;;23.10;95.70;;;;;;5044379;28;20025;-93
2022/07/20 08:44:36;;;;;;;15.43;4.25;;;23.00;95.30;;;;;;5041025;28;20029;-91
2022/07/20 08:47:02;;;;;;;9.18;4.20;;;22.90;95.40;;;;;;5043086;28;20017;-94
2022/07/20 08:49:28;;;;;;;12.63;3.78;;;22.80;95.40;;;;;;5040803;28;20055;-92
2022/07/20 08:51:54;;;;;;;9.60;4.72;;;22.80;95.30;;;;;;5040924;28;20037;-93
2022/07/20 08:54:20;;;;;;;14.15;4.70;;;22.80;95.40;;;;;;5041010;28;20027;-93
2022/07/20 08:56:46;;;;;;;15.38;4.20;;;22.80;95.40;;;;;;5040431;28;20025;-94
2022/07/20 08:59:12;;;;;;;10.77;4.05;;;22.90;95.10;;;;;;5048129;28;20033;-91
2022/07/20 09:01:57;;;;;;;10.18;3.80;;;22.90;94.50;;;;;;5057794;28;20093;-90
2022/07/20 09:04:23;;;;;;;15.73;4.35;;;22.90;94.50;;;;;;5057921;28;20028;-90
2022/07/20 09:06:49;;;;;;;10.07;4.00;;;22.90;94.40;;;;;;5057181;28;20030;-90
2022/07/20 09:09:17;;;;;;;10.98;3.83;;;22.90;94.30;;;;;;5056862;28;20061;-91
2022/07/20 09:11:43;;;;;;;14.20;5.45;;;22.90;94.30;;;;;;5052545;28;20044;-93
2022/07/20 09:14:08;;;;;;;10.18;4.65;;;23.10;94.10;;;;;;5041915;28;20071;-94
2022/07/20 09:16:43;;;;;;;14.27;4.53;;;23.20;93.70;;;;;;5041349;28;20479;-93
2022/07/20 09:19:09;;;;;;;16.38;4.70;;;23.30;93.30;;;;;;5039425;28;20029;-93
2022/07/20 09:21:35;;;;;;;18.73;5.13;;;23.40;93.00;;;;;;5038785;28;20064;-93
2022/07/20 09:24:04;;;;;;;13.57;4.07;;;23.40;93.00;;;;;;5038465;28;20044;-93
2022/07/20 09:26:35;;;;;;;17.92;4.70;;;23.50;92.30;;;;;;5045744;28;20029;-93
2022/07/20 09:29:04;;;;;;;13.40;4.10;;;23.50;92.30;;;;;;5029368;28;20109;-93
2022/07/20 09:31:38;;;;;;;12.57;4.22;;;23.40;92.10;;;;;;5047081;28;20049;-95
2022/07/20 09:34:04;;;;;;;14.77;4.28;;;23.50;92.00;;;;;;5048295;28;20026;-94
2022/07/20 09:36:34;;;;;;;13.90;3.95;;;23.60;91.80;;;;;;5054095;28;20037;-93
2022/07/20 09:39:08;;;;;;;12.73;3.90;;;23.60;91.50;;;;;;5055874;28;20052;-92
2022/07/20 09:41:36;;;;;;;11.52;4.60;;;23.70;91.30;;;;;;5054173;28;20128;-93
2022/07/20 09:44:05;;;;;;;9.95;4.35;;;23.80;91.10;;;;;;5053372;28;20041;-95
2022/07/20 09:46:42;;;;;;;9.00;4.25;;;23.90;90.70;;;;;;5053497;28;20020;-95
2022/07/20 09:49:10;;;;;;;13.98;4.65;;;24.10;90.10;;;;;;5052385;28;20060;-92
2022/07/20 09:51:44;;;;;;;9.65;4.60;;;24.10;90.00;;;;;;5054812;28;20110;-89
2022/07/20 09:54:12;;;;;;;20.90;8.30;;;24.30;89.70;;;;;;5055125;28;20033;-93
2022/07/20 09:56:40;;;;;;;31.15;12.57;;;24.50;88.70;;;;;;5056223;28;20014;-92
2022/07/20 09:59:13;;;;;;;25.63;11.77;;;24.70;87.70;;;;;;5057799;28;20021;-91
2022/07/20 10:01:45;;;;;;;28.40;11.40;;;24.80;87.20;;;;;;5057203;28;20038;-91
2022/07/20 10:04:13;;;;;;;32.90;14.68;;;25.00;86.10;;;;;;5040411;28;20067;-90
2022/07/20 10:06:42;;;;;;;23.50;9.45;;;25.10;84.60;;;;;;5057174;28;20017;-91
2022/07/20 10:09:09;;;;;;;22.97;8.37;;;25.10;83.50;;;;;;5056190;28;20029;-91
2022/07/20 10:11:35;;;;;;;17.40;7.70;;;25.20;82.80;;;;;;5056511;28;20084;-95
2022/07/20 10:14:07;;;;;;;19.10;8.07;;;25.30;82.30;;;;;;5055936;28;20025;-94
2022/07/20 10:16:47;;;;;;;17.83;7.72;;;25.50;81.50;;;;;;5054483;28;20036;-94
2022/07/20 10:19:13;;;;;;;16.15;7.68;;;25.60;80.90;;;;;;5049046;28;20097;-95
2022/07/20 10:21:48;;;;;;;17.75;8.20;;;25.80;80.00;;;;;;5048865;28;20109;-94
2022/07/20 10:24:27;;;;;;;10.93;4.97;;;25.80;79.30;;;;;;5050126;28;20041;-96
2022/07/20 10:27:16;;;;;;;11.35;5.22;;;25.80;78.90;;;;;;5033738;28;20033;-92
2022/07/20 10:29:56;;;;;;;11.90;4.72;;;25.70;78.60;;;;;;5045811;28;20034;-94
2022/07/20 10:32:28;;;;;;;10.05;3.88;;;25.60;78.80;;;;;;5049470;28;20022;-94
2022/07/20 10:34:59;;;;;;;6.20;4.10;;;25.60;78.90;;;;;;5052764;28;20684;-94
2022/07/20 10:37:29;;;;;;;8.82;4.32;;;25.60;78.90;;;;;;5051062;28;20022;-96
2022/07/20 10:40:04;;;;;;;10.73;4.53;;;25.60;78.70;;;;;;5037622;28;20063;-95
2022/07/20 10:42:33;;;;;;;12.50;4.30;;;25.60;78.50;;;;;;5053745;28;20041;-92
2022/07/20 10:45:23;;;;;;;13.45;3.83;;;25.60;78.20;;;;;;5041836;28;20033;-92
2022/07/20 10:48:11;;;;;;;9.02;4.18;;;25.60;77.90;;;;;;5047628;28;20034;-93
2022/07/20 10:51:01;;;;;;;7.25;3.92;;;25.60;77.80;;;;;;5034956;28;20028;-95
2022/07/20 10:53:28;;;;;;;9.85;3.70;;;25.50;77.30;;;;;;5049184;28;20044;-95
2022/07/20 10:55:56;;;;;;;14.20;3.67;;;25.50;77.30;;;;;;5043262;28;20569;-94
2022/07/20 10:58:25;;;;;;;7.80;3.20;;;25.30;77.30;;;;;;5043074;28;20052;-92
2022/07/20 11:00:57;;;;;;;15.50;3.72;;;25.30;77.50;;;;;;5039906;28;20101;-92
2022/07/20 11:03:34;;;;;;;19.33;4.25;;;25.20;77.70;;;;;;5039696;28;20406;-94
2022/07/20 11:06:13;;;;;;;11.80;3.97;;;25.10;77.90;;;;;;5045195;28;20112;-91
2022/07/20 11:08:51;;;;;;;10.98;4.07;;;25.00;77.70;;;;;;5022358;28;20140;-93
2022/07/20 11:11:37;;;;;;;13.10;3.80;;;24.90;77.80;;;;;;5051574;28;20026;-93
2022/07/20 11:14:05;;;;;;;10.25;4.10;;;24.70;78.00;;;;;;5038158;28;20051;-94
2022/07/20 11:16:33;;;;;;;14.98;4.25;;;24.40;78.60;;;;;;5038089;28;20022;-94
2022/07/20 11:19:01;;;;;;;9.35;4.13;;;24.20;79.40;;;;;;5038928;28;20029;-93
2022/07/20 11:21:30;;;;;;;11.00;3.80;;;24.10;80.10;;;;;;5038451;28;20021;-94
2022/07/20 11:23:56;;;;;;;11.52;4.00;;;24.20;80.40;;;;;;5022070;28;20045;-93
2022/07/20 11:26:23;;;;;;;9.15;4.05;;;24.10;80.40;;;;;;5047754;28;20028;-93
2022/07/20 11:28:58;;;;;;;10.18;4.20;;;24.10;80.70;;;;;;5036757;28;20017;-92
2022/07/20 11:31:27;;;;;;;11.13;3.95;;;24.00;80.90;;;;;;5052583;28;20017;-92
2022/07/20 11:33:55;;;;;;;13.43;3.40;;;23.90;81.00;;;;;;5055449;28;20030;-90
2022/07/20 11:36:26;;;;;;;17.52;3.63;;;23.70;81.60;;;;;;5059350;28;20034;-93
2022/07/20 11:38:57;;;;;;;11.85;4.20;;;23.70;82.10;;;;;;5059712;28;20049;-90
2022/07/20 11:41:32;;;;;;;10.13;3.35;;;23.70;82.50;;;;;;5054305;28;20085;-93
2022/07/20 11:43:59;;;;;;;9.02;3.95;;;23.70;82.80;;;;;;5040997;28;20033;-93
2022/07/20 11:46:30;;;;;;;17.33;6.85;;;23.80;82.90;;;;;;5025223;28;20025;-94
2022/07/20 11:49:01;;;;;;;33.58;15.82;;;24.10;83.10;;;;;;5048964;28;20075;-94
2022/07/20 11:51:28;;;;;;;37.55;16.05;;;24.60;82.40;;;;;;5049469;28;20021;-93
2022/07/20 11:53:54;;;;;;;15.57;8.07;;;24.90;81.20;;;;;;5049904;28;20017;-94
2022/07/20 11:56:23;;;;;;;13.18;5.35;;;25.00;80.20;;;;;;5044070;28;20089;-93
2022/07/20 11:58:51;;;;;;;10.27;4.68;;;25.00;80.20;;;;;;5039698;28;20022;-94
2022/07/20 12:01:32;;;;;;;13.07;5.32;;;25.00;79.10;;;;;;5040146;28;20048;-93
2022/07/20 12:03:59;;;;;;;;;;;24.90;79.00;;;;;;5041213;28;20037;-94
2022/07/20 12:06:28;;;;;;;31.70;13.50;;;25.00;79.10;;;;;;5047325;28;19909;-94
2022/07/20 12:09:15;;;;;;;30.40;10.68;;;25.00;78.80;;;;;;5044484;28;20033;-93
2022/07/20 12:12:02;;;;;;;25.58;11.82;;;25.00;78.40;;;;;;5049311;28;20048;-94
2022/07/20 12:14:37;;;;;;;26.50;11.00;;;24.90;78.10;;;;;;5049597;28;20048;-93
2022/07/20 12:17:22;;;;;;;28.05;11.20;;;25.00;78.00;;;;;;5048805;28;20164;-93
2022/07/20 12:19:50;;;;;;;23.55;9.38;;;25.00;77.60;;;;;;5048129;28;20055;-94
2022/07/20 12:22:34;;;;;;;22.30;8.88;;;25.10;77.50;;;;;;5048450;28;20038;-91
2022/07/20 12:25:01;;;;;;;21.30;8.55;;;25.10;77.00;;;;;;5047723;28;20021;-91
2022/07/20 12:27:29;;;;;;;14.13;5.93;;;25.10;76.50;;;;;;5030396;28;20101;-94
2022/07/20 12:29:55;;;;;;;15.38;5.50;;;25.10;76.50;;;;;;5044865;28;20021;-93
2022/07/20 12:32:36;;;;;;;12.23;4.10;;;25.10;76.30;;;;;;5040284;28;20125;-93
2022/07/20 12:35:04;;;;;;;;;;;25.10;75.90;;;;;;5037446;28;20487;-93
2022/07/20 12:37:52;;;;;;;13.75;3.33;;;25.00;75.90;;;;;;5038237;28;19904;-92
2022/07/20 12:40:33;;;;;;;8.27;3.03;;;24.90;75.20;;;;;;5036875;28;20068;-93
2022/07/20 12:42:59;;;;;;;10.30;3.33;;;24.70;75.40;;;;;;5019374;28;20041;-93